sensor_id;sensor_type;location;lat;lon;timestamp;P1;durP1;ratioP1;P2;durP2;ratioP2
30147;SDS011;16960;49.404;8.248;2023-06-14T00:01:50;6.80;;;6.10;;
30147;SDS011;16960;49.404;8.248;2023-06-14T00:04:17;6.30;;;5.70;;
30147;SDS011;16960;49.404;8.248;2023-06-14T00:06:45;6.77;;;6.10;;
30147;SDS011;16960;49.404;8.248;2023-06-14T00:09:15;7.00;;;5.60;;
30147;SDS011;16960;49.404;8.248;2023-06-14T00:11:42;5.83;;;5.33;;
30147;SDS011;16960;49.404;8.248;2023-06-14T00:14:10;5.57;;;5.07;;
30147;SDS011;16960;49.404;8.248;2023-06-14T00:16:43;6.53;;;5.90;;
30147;SDS011;16960;49.404;8.248;2023-06-14T00:19:26;6.67;;;5.73;;
30147;SDS011;16960;49.404;8.248;2023-06-14T00:21:55;7.50;;;6.63;;
30147;SDS011;16960;49.404;8.248;2023-06-14T00:24:24;6.50;;;5.67;;
30147;SDS011;16960;49.404;8.248;2023-06-14T00:26:51;8.93;;;6.10;;
30147;SDS011;16960;49.404;8.248;2023-06-14T00:29:17;5.37;;;4.97;;
30147;SDS011;16960;49.404;8.248;2023-06-14T00:31:44;6.40;;;5.80;;
30147;SDS011;16960;49.404;8.248;2023-06-14T00:34:11;6.80;;;5.70;;
30147;SDS011;16960;49.404;8.248;2023-06-14T00:36:38;6.27;;;5.67;;
30147;SDS011;16960;49.404;8.248;2023-06-14T00:39:05;7.90;;;5.57;;
30147;SDS011;16960;49.404;8.248;2023-06-14T00:41:33;6.33;;;5.73;;
30147;SDS011;16960;49.404;8.248;2023-06-14T00:44:00;6.83;;;6.23;;
30147;SDS011;16960;49.404;8.248;2023-06-14T00:46:28;6.80;;;6.10;;
30147;SDS011;16960;49.404;8.248;2023-06-14T00:48:56;6.77;;;6.17;;
30147;SDS011;16960;49.404;8.248;2023-06-14T00:51:25;6.77;;;6.17;;
30147;SDS011;16960;49.404;8.248;2023-06-14T00:53:52;6.43;;;5.83;;
30147;SDS011;16960;49.404;8.248;2023-06-14T00:56:19;6.90;;;6.30;;
30147;SDS011;16960;49.404;8.248;2023-06-14T00:58:48;7.47;;;5.50;;
30147;SDS011;16960;49.404;8.248;2023-06-14T01:01:16;6.57;;;5.80;;
30147;SDS011;16960;49.404;8.248;2023-06-14T01:03:43;7.07;;;5.83;;
30147;SDS011;16960;49.404;8.248;2023-06-14T01:06:12;5.40;;;4.90;;
30147;SDS011;16960;49.404;8.248;2023-06-14T01:08:55;6.60;;;6.10;;
30147;SDS011;16960;49.404;8.248;2023-06-14T01:11:31;6.60;;;6.00;;
30147;SDS011;16960;49.404;8.248;2023-06-14T01:14:03;6.73;;;6.03;;
30147;SDS011;16960;49.404;8.248;2023-06-14T01:16:32;6.23;;;5.73;;
30147;SDS011;16960;49.404;8.248;2023-06-14T01:19:01;7.77;;;6.90;;
30147;SDS011;16960;49.404;8.248;2023-06-14T01:21:28;7.13;;;6.53;;
30147;SDS011;16960;49.404;8.248;2023-06-14T01:23:56;6.97;;;6.23;;
30147;SDS011;16960;49.404;8.248;2023-06-14T01:26:23;7.03;;;5.70;;
30147;SDS011;16960;49.404;8.248;2023-06-14T01:28:51;6.97;;;6.27;;
30147;SDS011;16960;49.404;8.248;2023-06-14T01:31:23;6.50;;;5.90;;
30147;SDS011;16960;49.404;8.248;2023-06-14T01:33:51;7.53;;;6.20;;
30147;SDS011;16960;49.404;8.248;2023-06-14T01:36:18;7.17;;;6.50;;
30147;SDS011;16960;49.404;8.248;2023-06-14T01:38:47;6.83;;;6.17;;
30147;SDS011;16960;49.404;8.248;2023-06-14T01:41:16;6.40;;;5.90;;
30147;SDS011;16960;49.404;8.248;2023-06-14T01:43:45;6.60;;;6.10;;
30147;SDS011;16960;49.404;8.248;2023-06-14T01:46:13;7.33;;;6.73;;
30147;SDS011;16960;49.404;8.248;2023-06-14T01:48:42;7.33;;;6.53;;
30147;SDS011;16960;49.404;8.248;2023-06-14T01:51:09;7.23;;;6.57;;
30147;SDS011;16960;49.404;8.248;2023-06-14T01:53:36;7.00;;;6.37;;
30147;SDS011;16960;49.404;8.248;2023-06-14T01:56:03;7.33;;;6.63;;
30147;SDS011;16960;49.404;8.248;2023-06-14T01:58:31;6.90;;;6.23;;
30147;SDS011;16960;49.404;8.248;2023-06-14T02:00:58;6.37;;;5.87;;
30147;SDS011;16960;49.404;8.248;2023-06-14T02:03:25;7.63;;;6.53;;
30147;SDS011;16960;49.404;8.248;2023-06-14T02:05:52;6.90;;;6.30;;
30147;SDS011;16960;49.404;8.248;2023-06-14T02:08:20;7.40;;;6.70;;
30147;SDS011;16960;49.404;8.248;2023-06-14T02:10:47;9.93;;;7.20;;
30147;SDS011;16960;49.404;8.248;2023-06-14T02:13:14;8.90;;;6.80;;
30147;SDS011;16960;49.404;8.248;2023-06-14T02:15:42;7.03;;;6.30;;
30147;SDS011;16960;49.404;8.248;2023-06-14T02:18:10;7.30;;;6.57;;
30147;SDS011;16960;49.404;8.248;2023-06-14T02:20:38;6.93;;;6.23;;
30147;SDS011;16960;49.404;8.248;2023-06-14T02:23:05;7.40;;;6.37;;
30147;SDS011;16960;49.404;8.248;2023-06-14T02:25:33;7.40;;;6.13;;
30147;SDS011;16960;49.404;8.248;2023-06-14T02:28:00;7.93;;;6.80;;
30147;SDS011;16960;49.404;8.248;2023-06-14T02:30:27;7.17;;;6.50;;
30147;SDS011;16960;49.404;8.248;2023-06-14T02:32:55;7.43;;;6.10;;
30147;SDS011;16960;49.404;8.248;2023-06-14T02:35:22;7.57;;;6.77;;
30147;SDS011;16960;49.404;8.248;2023-06-14T02:37:51;7.63;;;6.93;;
30147;SDS011;16960;49.404;8.248;2023-06-14T02:40:18;7.07;;;6.33;;
30147;SDS011;16960;49.404;8.248;2023-06-14T02:42:45;7.30;;;6.70;;
30147;SDS011;16960;49.404;8.248;2023-06-14T02:45:12;7.83;;;7.03;;
30147;SDS011;16960;49.404;8.248;2023-06-14T02:47:45;6.60;;;6.07;;
30147;SDS011;16960;49.404;8.248;2023-06-14T02:50:13;7.87;;;7.07;;
30147;SDS011;16960;49.404;8.248;2023-06-14T02:52:41;7.67;;;6.97;;
30147;SDS011;16960;49.404;8.248;2023-06-14T02:55:09;7.50;;;6.60;;
30147;SDS011;16960;49.404;8.248;2023-06-14T02:57:36;9.00;;;6.20;;
30147;SDS011;16960;49.404;8.248;2023-06-14T03:00:04;7.40;;;6.70;;
30147;SDS011;16960;49.404;8.248;2023-06-14T03:02:34;8.07;;;7.40;;
30147;SDS011;16960;49.404;8.248;2023-06-14T03:05:01;7.00;;;6.40;;
30147;SDS011;16960;49.404;8.248;2023-06-14T03:07:31;10.77;;;6.30;;
30147;SDS011;16960;49.404;8.248;2023-06-14T03:09:57;8.10;;;7.00;;
30147;SDS011;16960;49.404;8.248;2023-06-14T03:12:24;7.60;;;6.33;;
30147;SDS011;16960;49.404;8.248;2023-06-14T03:14:51;7.73;;;6.97;;
30147;SDS011;16960;49.404;8.248;2023-06-14T03:17:21;8.07;;;7.37;;
30147;SDS011;16960;49.404;8.248;2023-06-14T03:19:49;8.73;;;6.37;;
30147;SDS011;16960;49.404;8.248;2023-06-14T03:22:16;7.67;;;6.90;;
30147;SDS011;16960;49.404;8.248;2023-06-14T03:24:44;8.57;;;7.23;;
30147;SDS011;16960;49.404;8.248;2023-06-14T03:27:11;9.70;;;7.07;;
30147;SDS011;16960;49.404;8.248;2023-06-14T03:29:39;6.07;;;5.53;;
30147;SDS011;16960;49.404;8.248;2023-06-14T03:32:06;7.53;;;6.83;;
30147;SDS011;16960;49.404;8.248;2023-06-14T03:34:34;7.83;;;7.03;;
30147;SDS011;16960;49.404;8.248;2023-06-14T03:37:03;7.57;;;6.87;;
30147;SDS011;16960;49.404;8.248;2023-06-14T03:39:30;7.03;;;6.33;;
30147;SDS011;16960;49.404;8.248;2023-06-14T03:41:59;6.53;;;6.03;;
30147;SDS011;16960;49.404;8.248;2023-06-14T03:44:26;10.67;;;6.90;;
30147;SDS011;16960;49.404;8.248;2023-06-14T03:46:53;7.47;;;6.67;;
30147;SDS011;16960;49.404;8.248;2023-06-14T03:49:20;7.47;;;6.77;;
30147;SDS011;16960;49.404;8.248;2023-06-14T03:51:47;7.83;;;6.80;;
30147;SDS011;16960;49.404;8.248;2023-06-14T03:54:16;7.87;;;7.13;;
30147;SDS011;16960;49.404;8.248;2023-06-14T03:56:43;7.33;;;6.70;;
30147;SDS011;16960;49.404;8.248;2023-06-14T03:59:12;8.13;;;7.23;;
30147;SDS011;16960;49.404;8.248;2023-06-14T04:01:39;7.90;;;6.77;;
30147;SDS011;16960;49.404;8.248;2023-06-14T04:04:11;7.87;;;6.70;;
30147;SDS011;16960;49.404;8.248;2023-06-14T04:06:38;8.33;;;7.37;;
30147;SDS011;16960;49.404;8.248;2023-06-14T04:09:07;7.53;;;6.60;;
30147;SDS011;16960;49.404;8.248;2023-06-14T04:11:34;7.20;;;6.50;;
30147;SDS011;16960;49.404;8.248;2023-06-14T04:14:01;7.43;;;6.80;;
30147;SDS011;16960;49.404;8.248;2023-06-14T04:16:29;7.17;;;6.47;;
30147;SDS011;16960;49.404;8.248;2023-06-14T04:18:57;8.57;;;6.80;;
30147;SDS011;16960;49.404;8.248;2023-06-14T04:21:24;7.93;;;6.90;;
30147;SDS011;16960;49.404;8.248;2023-06-14T04:23:52;7.57;;;6.87;;
30147;SDS011;16960;49.404;8.248;2023-06-14T04:26:20;7.30;;;6.57;;
30147;SDS011;16960;49.404;8.248;2023-06-14T04:28:53;6.90;;;6.30;;
30147;SDS011;16960;49.404;8.248;2023-06-14T04:31:34;7.10;;;6.17;;
30147;SDS011;16960;49.404;8.248;2023-06-14T04:34:02;8.10;;;6.33;;
30147;SDS011;16960;49.404;8.248;2023-06-14T04:36:31;9.93;;;6.63;;
30147;SDS011;16960;49.404;8.248;2023-06-14T04:38:59;7.73;;;5.80;;
30147;SDS011;16960;49.404;8.248;2023-06-14T04:41:29;7.50;;;6.57;;
30147;SDS011;16960;49.404;8.248;2023-06-14T04:43:56;8.47;;;7.60;;
30147;SDS011;16960;49.404;8.248;2023-06-14T04:46:26;10.23;;;6.40;;
30147;SDS011;16960;49.404;8.248;2023-06-14T04:48:55;6.10;;;5.60;;
30147;SDS011;16960;49.404;8.248;2023-06-14T04:51:22;8.07;;;6.10;;
30147;SDS011;16960;49.404;8.248;2023-06-14T04:53:54;6.60;;;6.00;;
30147;SDS011;16960;49.404;8.248;2023-06-14T04:56:23;6.37;;;5.87;;
30147;SDS011;16960;49.404;8.248;2023-06-14T04:58:51;7.30;;;6.60;;
30147;SDS011;16960;49.404;8.248;2023-06-14T05:01:18;7.83;;;6.37;;
30147;SDS011;16960;49.404;8.248;2023-06-14T05:03:46;8.00;;;6.00;;
30147;SDS011;16960;49.404;8.248;2023-06-14T05:06:15;6.80;;;5.77;;
30147;SDS011;16960;49.404;8.248;2023-06-14T05:08:42;8.00;;;6.77;;
30147;SDS011;16960;49.404;8.248;2023-06-14T05:11:09;8.50;;;6.37;;
30147;SDS011;16960;49.404;8.248;2023-06-14T05:13:36;7.17;;;6.47;;
30147;SDS011;16960;49.404;8.248;2023-06-14T05:16:06;7.00;;;6.40;;
30147;SDS011;16960;49.404;8.248;2023-06-14T05:18:34;8.30;;;5.90;;
30147;SDS011;16960;49.404;8.248;2023-06-14T05:21:02;6.70;;;6.10;;
30147;SDS011;16960;49.404;8.248;2023-06-14T05:23:31;7.37;;;6.30;;
30147;SDS011;16960;49.404;8.248;2023-06-14T05:25:58;6.27;;;5.77;;
30147;SDS011;16960;49.404;8.248;2023-06-14T05:28:25;7.90;;;6.90;;
30147;SDS011;16960;49.404;8.248;2023-06-14T05:30:52;11.10;;;5.70;;
30147;SDS011;16960;49.404;8.248;2023-06-14T05:33:19;8.43;;;6.27;;
30147;SDS011;16960;49.404;8.248;2023-06-14T05:35:47;7.90;;;6.60;;
30147;SDS011;16960;49.404;8.248;2023-06-14T05:38:15;7.87;;;6.27;;
30147;SDS011;16960;49.404;8.248;2023-06-14T05:40:43;7.73;;;6.90;;
30147;SDS011;16960;49.404;8.248;2023-06-14T05:43:10;7.27;;;5.70;;
30147;SDS011;16960;49.404;8.248;2023-06-14T05:45:37;6.27;;;5.67;;
30147;SDS011;16960;49.404;8.248;2023-06-14T05:48:04;10.13;;;6.00;;
30147;SDS011;16960;49.404;8.248;2023-06-14T05:50:31;12.33;;;6.80;;
30147;SDS011;16960;49.404;8.248;2023-06-14T05:52:58;7.10;;;6.40;;
30147;SDS011;16960;49.404;8.248;2023-06-14T05:55:25;7.93;;;6.63;;
30147;SDS011;16960;49.404;8.248;2023-06-14T05:57:54;11.10;;;6.47;;
30147;SDS011;16960;49.404;8.248;2023-06-14T06:00:20;9.70;;;6.37;;
30147;SDS011;16960;49.404;8.248;2023-06-14T06:02:47;8.13;;;5.80;;
30147;SDS011;16960;49.404;8.248;2023-06-14T06:05:14;19.03;;;7.30;;
30147;SDS011;16960;49.404;8.248;2023-06-14T06:07:42;6.27;;;5.43;;
30147;SDS011;16960;49.404;8.248;2023-06-14T06:10:10;7.00;;;6.20;;
30147;SDS011;16960;49.404;8.248;2023-06-14T06:12:37;6.80;;;6.20;;
30147;SDS011;16960;49.404;8.248;2023-06-14T06:15:06;10.27;;;5.80;;
30147;SDS011;16960;49.404;8.248;2023-06-14T06:17:37;8.83;;;6.07;;
30147;SDS011;16960;49.404;8.248;2023-06-14T06:20:04;8.03;;;5.77;;
30147;SDS011;16960;49.404;8.248;2023-06-14T06:22:33;7.10;;;5.47;;
30147;SDS011;16960;49.404;8.248;2023-06-14T06:25:00;6.30;;;5.77;;
30147;SDS011;16960;49.404;8.248;2023-06-14T06:27:27;8.00;;;5.90;;
30147;SDS011;16960;49.404;8.248;2023-06-14T06:29:54;8.43;;;6.77;;
30147;SDS011;16960;49.404;8.248;2023-06-14T06:32:23;7.10;;;6.40;;
30147;SDS011;16960;49.404;8.248;2023-06-14T06:34:49;9.50;;;7.43;;
30147;SDS011;16960;49.404;8.248;2023-06-14T06:37:16;7.87;;;5.90;;
30147;SDS011;16960;49.404;8.248;2023-06-14T06:39:44;10.93;;;6.70;;
30147;SDS011;16960;49.404;8.248;2023-06-14T06:42:11;8.90;;;6.03;;
30147;SDS011;16960;49.404;8.248;2023-06-14T06:44:38;8.83;;;6.40;;
30147;SDS011;16960;49.404;8.248;2023-06-14T06:47:06;6.17;;;5.57;;
30147;SDS011;16960;49.404;8.248;2023-06-14T06:49:34;6.67;;;6.07;;
30147;SDS011;16960;49.404;8.248;2023-06-14T06:52:01;7.17;;;6.47;;
30147;SDS011;16960;49.404;8.248;2023-06-14T06:54:30;8.57;;;5.83;;
30147;SDS011;16960;49.404;8.248;2023-06-14T06:56:57;6.60;;;5.87;;
30147;SDS011;16960;49.404;8.248;2023-06-14T06:59:24;6.90;;;6.20;;
30147;SDS011;16960;49.404;8.248;2023-06-14T07:01:51;6.97;;;5.97;;
30147;SDS011;16960;49.404;8.248;2023-06-14T07:04:18;6.97;;;6.23;;
30147;SDS011;16960;49.404;8.248;2023-06-14T07:06:47;7.20;;;6.60;;
30147;SDS011;16960;49.404;8.248;2023-06-14T07:09:14;7.57;;;6.77;;
30147;SDS011;16960;49.404;8.248;2023-06-14T07:11:41;6.87;;;5.93;;
30147;SDS011;16960;49.404;8.248;2023-06-14T07:14:10;6.73;;;6.00;;
30147;SDS011;16960;49.404;8.248;2023-06-14T07:16:37;7.50;;;6.03;;
30147;SDS011;16960;49.404;8.248;2023-06-14T07:19:06;8.17;;;5.70;;
30147;SDS011;16960;49.404;8.248;2023-06-14T07:21:34;9.60;;;6.57;;
30147;SDS011;16960;49.404;8.248;2023-06-14T07:24:04;10.17;;;5.93;;
30147;SDS011;16960;49.404;8.248;2023-06-14T07:26:31;6.63;;;6.03;;
30147;SDS011;16960;49.404;8.248;2023-06-14T07:28:58;6.87;;;6.27;;
30147;SDS011;16960;49.404;8.248;2023-06-14T07:31:25;7.80;;;5.70;;
30147;SDS011;16960;49.404;8.248;2023-06-14T07:33:52;9.97;;;6.00;;
30147;SDS011;16960;49.404;8.248;2023-06-14T07:36:19;7.67;;;6.50;;
30147;SDS011;16960;49.404;8.248;2023-06-14T07:38:46;8.00;;;5.70;;
30147;SDS011;16960;49.404;8.248;2023-06-14T07:41:14;7.37;;;6.30;;
30147;SDS011;16960;49.404;8.248;2023-06-14T07:43:42;6.73;;;6.10;;
30147;SDS011;16960;49.404;8.248;2023-06-14T07:46:09;19.47;;;6.90;;
30147;SDS011;16960;49.404;8.248;2023-06-14T07:48:35;11.83;;;6.83;;
30147;SDS011;16960;49.404;8.248;2023-06-14T07:51:02;9.53;;;6.10;;
30147;SDS011;16960;49.404;8.248;2023-06-14T07:53:30;6.30;;;5.70;;
30147;SDS011;16960;49.404;8.248;2023-06-14T07:55:57;8.70;;;5.27;;
30147;SDS011;16960;49.404;8.248;2023-06-14T07:58:25;7.50;;;6.80;;
30147;SDS011;16960;49.404;8.248;2023-06-14T08:00:52;7.40;;;5.90;;
30147;SDS011;16960;49.404;8.248;2023-06-14T08:03:19;6.97;;;6.37;;
30147;SDS011;16960;49.404;8.248;2023-06-14T08:05:47;7.20;;;5.90;;
30147;SDS011;16960;49.404;8.248;2023-06-14T08:08:14;7.77;;;5.77;;
30147;SDS011;16960;49.404;8.248;2023-06-14T08:10:42;7.50;;;6.50;;
30147;SDS011;16960;49.404;8.248;2023-06-14T08:13:09;7.43;;;5.43;;
30147;SDS011;16960;49.404;8.248;2023-06-14T08:15:37;5.80;;;5.30;;
30147;SDS011;16960;49.404;8.248;2023-06-14T08:18:04;8.00;;;5.43;;
30147;SDS011;16960;49.404;8.248;2023-06-14T08:20:31;5.93;;;5.27;;
30147;SDS011;16960;49.404;8.248;2023-06-14T08:22:59;9.40;;;5.90;;
30147;SDS011;16960;49.404;8.248;2023-06-14T08:25:26;5.20;;;4.80;;
30147;SDS011;16960;49.404;8.248;2023-06-14T08:27:53;6.63;;;4.90;;
30147;SDS011;16960;49.404;8.248;2023-06-14T08:30:21;7.40;;;5.50;;
30147;SDS011;16960;49.404;8.248;2023-06-14T08:32:49;8.27;;;5.23;;
30147;SDS011;16960;49.404;8.248;2023-06-14T08:35:16;5.50;;;5.00;;
30147;SDS011;16960;49.404;8.248;2023-06-14T08:37:43;6.20;;;5.03;;
30147;SDS011;16960;49.404;8.248;2023-06-14T08:40:15;5.77;;;5.17;;
30147;SDS011;16960;49.404;8.248;2023-06-14T08:42:46;5.83;;;5.33;;
30147;SDS011;16960;49.404;8.248;2023-06-14T08:45:16;6.90;;;5.40;;
30147;SDS011;16960;49.404;8.248;2023-06-14T08:47:43;7.20;;;5.13;;
30147;SDS011;16960;49.404;8.248;2023-06-14T08:50:12;5.40;;;4.77;;
30147;SDS011;16960;49.404;8.248;2023-06-14T08:52:41;6.03;;;5.20;;
30147;SDS011;16960;49.404;8.248;2023-06-14T08:55:14;6.43;;;4.90;;
30147;SDS011;16960;49.404;8.248;2023-06-14T08:57:42;7.60;;;5.60;;
30147;SDS011;16960;49.404;8.248;2023-06-14T09:00:11;7.57;;;4.23;;
30147;SDS011;16960;49.404;8.248;2023-06-14T09:02:39;4.97;;;4.53;;
30147;SDS011;16960;49.404;8.248;2023-06-14T09:05:08;7.13;;;5.50;;
30147;SDS011;16960;49.404;8.248;2023-06-14T09:07:37;5.40;;;4.90;;
30147;SDS011;16960;49.404;8.248;2023-06-14T09:10:06;4.87;;;4.23;;
30147;SDS011;16960;49.404;8.248;2023-06-14T09:12:35;5.00;;;4.50;;
30147;SDS011;16960;49.404;8.248;2023-06-14T09:15:02;4.83;;;4.43;;
30147;SDS011;16960;49.404;8.248;2023-06-14T09:17:32;6.40;;;4.90;;
30147;SDS011;16960;49.404;8.248;2023-06-14T09:19:59;5.10;;;4.70;;
30147;SDS011;16960;49.404;8.248;2023-06-14T09:22:30;5.20;;;4.70;;
30147;SDS011;16960;49.404;8.248;2023-06-14T09:24:58;4.40;;;3.80;;
30147;SDS011;16960;49.404;8.248;2023-06-14T09:27:26;7.23;;;4.13;;
30147;SDS011;16960;49.404;8.248;2023-06-14T09:29:53;5.90;;;4.90;;
30147;SDS011;16960;49.404;8.248;2023-06-14T09:32:20;10.67;;;5.00;;
30147;SDS011;16960;49.404;8.248;2023-06-14T09:34:47;6.60;;;4.57;;
30147;SDS011;16960;49.404;8.248;2023-06-14T09:37:25;5.90;;;3.90;;
30147;SDS011;16960;49.404;8.248;2023-06-14T09:39:54;3.93;;;3.53;;
30147;SDS011;16960;49.404;8.248;2023-06-14T09:42:23;4.50;;;4.10;;
30147;SDS011;16960;49.404;8.248;2023-06-14T09:44:51;5.70;;;3.93;;
30147;SDS011;16960;49.404;8.248;2023-06-14T09:47:19;4.87;;;4.20;;
30147;SDS011;16960;49.404;8.248;2023-06-14T09:49:46;6.07;;;4.20;;
30147;SDS011;16960;49.404;8.248;2023-06-14T09:52:15;4.03;;;3.73;;
30147;SDS011;16960;49.404;8.248;2023-06-14T09:54:43;6.03;;;4.27;;
30147;SDS011;16960;49.404;8.248;2023-06-14T09:57:12;4.80;;;4.33;;
30147;SDS011;16960;49.404;8.248;2023-06-14T09:59:43;4.60;;;4.20;;
30147;SDS011;16960;49.404;8.248;2023-06-14T10:02:14;6.03;;;4.70;;
30147;SDS011;16960;49.404;8.248;2023-06-14T10:04:56;8.33;;;4.37;;
30147;SDS011;16960;49.404;8.248;2023-06-14T10:07:27;4.23;;;3.87;;
30147;SDS011;16960;49.404;8.248;2023-06-14T10:09:58;4.30;;;4.00;;
30147;SDS011;16960;49.404;8.248;2023-06-14T10:12:26;8.23;;;5.10;;
30147;SDS011;16960;49.404;8.248;2023-06-14T10:14:54;4.57;;;4.17;;
30147;SDS011;16960;49.404;8.248;2023-06-14T10:17:25;4.40;;;4.10;;
30147;SDS011;16960;49.404;8.248;2023-06-14T10:20:03;5.03;;;4.17;;
30147;SDS011;16960;49.404;8.248;2023-06-14T10:22:43;4.77;;;4.27;;
30147;SDS011;16960;49.404;8.248;2023-06-14T10:25:13;4.80;;;4.23;;
30147;SDS011;16960;49.404;8.248;2023-06-14T10:27:56;7.20;;;4.27;;
30147;SDS011;16960;49.404;8.248;2023-06-14T10:30:32;4.80;;;3.90;;
30147;SDS011;16960;49.404;8.248;2023-06-14T10:33:05;4.27;;;3.87;;
30147;SDS011;16960;49.404;8.248;2023-06-14T10:35:32;3.47;;;3.27;;
30147;SDS011;16960;49.404;8.248;2023-06-14T10:38:08;4.70;;;3.90;;
30147;SDS011;16960;49.404;8.248;2023-06-14T10:40:37;3.93;;;3.60;;
30147;SDS011;16960;49.404;8.248;2023-06-14T10:48:48;4.10;;;3.77;;
30147;SDS011;16960;49.404;8.248;2023-06-14T10:51:15;4.47;;;4.10;;
30147;SDS011;16960;49.404;8.248;2023-06-14T10:53:45;4.00;;;3.70;;
30147;SDS011;16960;49.404;8.248;2023-06-14T10:56:22;3.87;;;3.57;;
30147;SDS011;16960;49.404;8.248;2023-06-14T10:58:53;4.17;;;3.60;;
30147;SDS011;16960;49.404;8.248;2023-06-14T11:01:28;4.10;;;3.80;;
30147;SDS011;16960;49.404;8.248;2023-06-14T11:04:08;4.27;;;3.97;;
30147;SDS011;16960;49.404;8.248;2023-06-14T11:06:44;4.57;;;3.93;;
30147;SDS011;16960;49.404;8.248;2023-06-14T11:09:34;4.00;;;3.70;;
30147;SDS011;16960;49.404;8.248;2023-06-14T11:12:19;4.43;;;4.00;;
30147;SDS011;16960;49.404;8.248;2023-06-14T11:14:47;3.90;;;3.40;;
30147;SDS011;16960;49.404;8.248;2023-06-14T11:17:16;3.80;;;3.50;;
30147;SDS011;16960;49.404;8.248;2023-06-14T11:19:43;4.10;;;3.70;;
30147;SDS011;16960;49.404;8.248;2023-06-14T11:22:10;5.60;;;3.33;;
30147;SDS011;16960;49.404;8.248;2023-06-14T11:24:39;4.17;;;3.10;;
30147;SDS011;16960;49.404;8.248;2023-06-14T11:27:06;3.77;;;3.47;;
30147;SDS011;16960;49.404;8.248;2023-06-14T11:29:33;4.23;;;3.23;;
30147;SDS011;16960;49.404;8.248;2023-06-14T11:32:00;3.80;;;3.50;;
30147;SDS011;16960;49.404;8.248;2023-06-14T11:34:29;3.30;;;3.10;;
30147;SDS011;16960;49.404;8.248;2023-06-14T11:36:56;3.83;;;3.53;;
30147;SDS011;16960;49.404;8.248;2023-06-14T11:39:24;3.67;;;3.37;;
30147;SDS011;16960;49.404;8.248;2023-06-14T11:41:52;3.53;;;3.23;;
30147;SDS011;16960;49.404;8.248;2023-06-14T11:44:20;4.03;;;3.20;;
30147;SDS011;16960;49.404;8.248;2023-06-14T11:46:47;4.90;;;3.70;;
30147;SDS011;16960;49.404;8.248;2023-06-14T11:49:15;3.87;;;3.57;;
30147;SDS011;16960;49.404;8.248;2023-06-14T11:51:43;4.47;;;3.37;;
30147;SDS011;16960;49.404;8.248;2023-06-14T11:54:11;3.40;;;3.00;;
30147;SDS011;16960;49.404;8.248;2023-06-14T11:56:38;4.00;;;3.53;;
30147;SDS011;16960;49.404;8.248;2023-06-14T11:59:05;3.90;;;3.27;;
30147;SDS011;16960;49.404;8.248;2023-06-14T12:01:35;3.10;;;2.90;;
30147;SDS011;16960;49.404;8.248;2023-06-14T12:04:03;3.20;;;3.00;;
30147;SDS011;16960;49.404;8.248;2023-06-14T12:06:30;4.40;;;3.00;;
30147;SDS011;16960;49.404;8.248;2023-06-14T12:09:04;3.30;;;2.90;;
30147;SDS011;16960;49.404;8.248;2023-06-14T12:11:37;3.10;;;2.90;;
30147;SDS011;16960;49.404;8.248;2023-06-14T12:14:04;3.57;;;3.27;;
30147;SDS011;16960;49.404;8.248;2023-06-14T12:16:32;2.90;;;2.70;;
30147;SDS011;16960;49.404;8.248;2023-06-14T12:19:00;3.80;;;3.27;;
30147;SDS011;16960;49.404;8.248;2023-06-14T12:21:35;4.23;;;3.03;;
30147;SDS011;16960;49.404;8.248;2023-06-14T12:24:08;3.40;;;3.10;;
30147;SDS011;16960;49.404;8.248;2023-06-14T12:26:37;3.27;;;2.97;;
30147;SDS011;16960;49.404;8.248;2023-06-14T12:29:06;3.00;;;2.80;;
30147;SDS011;16960;49.404;8.248;2023-06-14T12:31:33;4.13;;;3.07;;
30147;SDS011;16960;49.404;8.248;2023-06-14T12:34:00;3.37;;;3.07;;
30147;SDS011;16960;49.404;8.248;2023-06-14T12:36:27;3.73;;;3.40;;
30147;SDS011;16960;49.404;8.248;2023-06-14T12:38:55;3.43;;;3.13;;
30147;SDS011;16960;49.404;8.248;2023-06-14T12:41:23;3.70;;;2.90;;
30147;SDS011;16960;49.404;8.248;2023-06-14T12:43:51;3.53;;;3.23;;
30147;SDS011;16960;49.404;8.248;2023-06-14T12:46:18;2.60;;;2.40;;
30147;SDS011;16960;49.404;8.248;2023-06-14T12:48:46;3.07;;;2.87;;
30147;SDS011;16960;49.404;8.248;2023-06-14T12:51:12;3.47;;;3.07;;
30147;SDS011;16960;49.404;8.248;2023-06-14T12:53:39;2.60;;;2.43;;
30147;SDS011;16960;49.404;8.248;2023-06-14T12:56:08;2.70;;;2.50;;
30147;SDS011;16960;49.404;8.248;2023-06-14T12:58:37;3.70;;;3.40;;
30147;SDS011;16960;49.404;8.248;2023-06-14T13:01:04;3.47;;;3.17;;
30147;SDS011;16960;49.404;8.248;2023-06-14T13:03:30;4.80;;;3.40;;
30147;SDS011;16960;49.404;8.248;2023-06-14T13:05:58;3.37;;;3.07;;
30147;SDS011;16960;49.404;8.248;2023-06-14T13:08:25;3.53;;;3.23;;
30147;SDS011;16960;49.404;8.248;2023-06-14T13:10:52;3.37;;;3.07;;
30147;SDS011;16960;49.404;8.248;2023-06-14T13:13:20;4.80;;;3.17;;
30147;SDS011;16960;49.404;8.248;2023-06-14T13:15:48;2.70;;;2.50;;
30147;SDS011;16960;49.404;8.248;2023-06-14T13:18:16;3.30;;;3.00;;
30147;SDS011;16960;49.404;8.248;2023-06-14T13:20:43;3.40;;;2.87;;
30147;SDS011;16960;49.404;8.248;2023-06-14T13:23:11;3.47;;;3.00;;
30147;SDS011;16960;49.404;8.248;2023-06-14T13:25:38;3.60;;;2.80;;
30147;SDS011;16960;49.404;8.248;2023-06-14T13:28:06;3.37;;;3.07;;
30147;SDS011;16960;49.404;8.248;2023-06-14T13:30:33;3.07;;;2.57;;
30147;SDS011;16960;49.404;8.248;2023-06-14T13:33:01;3.40;;;2.63;;
30147;SDS011;16960;49.404;8.248;2023-06-14T13:35:28;3.13;;;2.93;;
30147;SDS011;16960;49.404;8.248;2023-06-14T13:37:55;3.30;;;3.00;;
30147;SDS011;16960;49.404;8.248;2023-06-14T13:40:22;2.53;;;2.33;;
30147;SDS011;16960;49.404;8.248;2023-06-14T13:42:49;2.90;;;2.70;;
30147;SDS011;16960;49.404;8.248;2023-06-14T13:45:16;3.10;;;2.90;;
30147;SDS011;16960;49.404;8.248;2023-06-14T13:47:43;2.97;;;2.77;;
30147;SDS011;16960;49.404;8.248;2023-06-14T13:50:14;3.10;;;2.90;;
30147;SDS011;16960;49.404;8.248;2023-06-14T13:52:42;4.13;;;3.33;;
30147;SDS011;16960;49.404;8.248;2023-06-14T13:55:09;3.63;;;2.80;;
30147;SDS011;16960;49.404;8.248;2023-06-14T13:57:36;3.90;;;2.53;;
30147;SDS011;16960;49.404;8.248;2023-06-14T14:00:03;2.80;;;2.60;;
30147;SDS011;16960;49.404;8.248;2023-06-14T14:02:30;3.50;;;3.20;;
30147;SDS011;16960;49.404;8.248;2023-06-14T14:04:57;2.70;;;2.50;;
30147;SDS011;16960;49.404;8.248;2023-06-14T14:07:26;3.10;;;2.90;;
30147;SDS011;16960;49.404;8.248;2023-06-14T14:09:54;2.83;;;2.63;;
30147;SDS011;16960;49.404;8.248;2023-06-14T14:12:22;3.03;;;2.60;;
30147;SDS011;16960;49.404;8.248;2023-06-14T14:14:50;2.50;;;2.30;;
30147;SDS011;16960;49.404;8.248;2023-06-14T14:17:17;3.13;;;2.83;;
30147;SDS011;16960;49.404;8.248;2023-06-14T14:19:44;3.00;;;2.70;;
30147;SDS011;16960;49.404;8.248;2023-06-14T14:22:11;3.17;;;2.93;;
30147;SDS011;16960;49.404;8.248;2023-06-14T14:24:39;2.77;;;2.57;;
30147;SDS011;16960;49.404;8.248;2023-06-14T14:27:06;3.40;;;3.07;;
30147;SDS011;16960;49.404;8.248;2023-06-14T14:29:33;3.20;;;2.87;;
30147;SDS011;16960;49.404;8.248;2023-06-14T14:32:00;2.93;;;2.60;;
30147;SDS011;16960;49.404;8.248;2023-06-14T14:34:27;2.97;;;2.43;;
30147;SDS011;16960;49.404;8.248;2023-06-14T14:36:54;3.00;;;2.80;;
30147;SDS011;16960;49.404;8.248;2023-06-14T14:39:21;3.30;;;3.00;;
30147;SDS011;16960;49.404;8.248;2023-06-14T14:41:50;3.03;;;2.83;;
30147;SDS011;16960;49.404;8.248;2023-06-14T14:44:17;3.53;;;3.00;;
30147;SDS011;16960;49.404;8.248;2023-06-14T14:46:44;4.03;;;2.90;;
30147;SDS011;16960;49.404;8.248;2023-06-14T14:49:11;2.80;;;2.60;;
30147;SDS011;16960;49.404;8.248;2023-06-14T14:51:38;2.60;;;2.40;;
30147;SDS011;16960;49.404;8.248;2023-06-14T14:54:05;2.90;;;2.70;;
30147;SDS011;16960;49.404;8.248;2023-06-14T14:56:32;6.70;;;3.10;;
30147;SDS011;16960;49.404;8.248;2023-06-14T14:59:01;2.53;;;2.33;;
30147;SDS011;16960;49.404;8.248;2023-06-14T15:01:28;2.33;;;2.13;;